Time;durP1;ratioP1;P1;durP2;ratioP2;P2;SDS_P1;SDS_P2;PMS_P1;PMS_P2;Temp;Humidity;BMP_temperature;BMP_pressure;BME280_temperature;BME280_humidity;BME280_pressure;Samples;Min_cycle;Max_cycle;Signal;HPM_P1;HPM_P2
2022/04/23 00:00:50;;;;;;;21.08;12.93;;;;;;;10.13;100.00;100476.03;4996638;28;20076;-45
2022/04/23 00:03:18;;;;;;;23.90;12.80;;;;;;;10.09;100.00;100467.53;4994800;28;20030;-44
2022/04/23 00:05:44;;;;;;;20.02;13.23;;;;;;;10.07;100.00;100466.03;5012133;28;20048;-46
2022/04/23 00:08:10;;;;;;;22.88;13.85;;;;;;;10.04;100.00;100472.53;4995945;28;20035;-42
2022/04/23 00:10:36;;;;;;;21.35;13.48;;;;;;;10.02;100.00;100466.53;4997553;28;20041;-46
2022/04/23 00:13:03;;;;;;;22.90;13.50;;;;;;;9.95;100.00;100465.53;4995303;28;20025;-42
2022/04/23 00:15:29;;;;;;;24.38;14.20;;;;;;;10.00;100.00;100473.88;4995702;28;20193;-44
2022/04/23 00:17:54;;;;;;;20.83;13.88;;;;;;;9.98;100.00;100467.03;5003013;28;20330;-45
2022/04/23 00:20:23;;;;;;;19.45;13.70;;;;;;;9.95;100.00;100475.38;5002836;28;20033;-44
2022/04/23 00:22:49;;;;;;;17.80;13.32;;;;;;;9.92;100.00;100473.88;4998199;28;20033;-43
2022/04/23 00:25:14;;;;;;;19.73;14.02;;;;;;;9.86;100.00;100462.03;4999165;28;20386;-45
2022/04/23 00:27:39;;;;;;;22.05;13.80;;;;;;;9.84;100.00;100474.72;5011717;28;20641;-45
2022/04/23 00:30:05;;;;;;;24.70;15.30;;;;;;;9.82;100.00;100474.00;5011772;28;20042;-47
2022/04/23 00:32:31;;;;;;;22.58;14.02;;;;;;;9.78;100.00;100463.88;5015420;28;20025;-44
2022/04/23 00:34:56;;;;;;;22.17;14.85;;;;;;;9.75;100.00;100473.00;5016182;28;20215;-43
2022/04/23 00:37:21;;;;;;;21.67;14.27;;;;;;;9.73;100.00;100456.34;5006459;28;20041;-43
2022/04/23 00:39:48;;;;;;;20.90;14.15;;;;;;;9.69;100.00;100466.53;4996384;28;20029;-43
2022/04/23 00:42:13;;;;;;;20.92;14.10;;;;;;;9.68;100.00;100467.50;4995138;28;20080;-42
2022/04/23 00:44:38;;;;;;;25.20;14.68;;;;;;;9.66;100.00;100464.19;4995922;28;20511;-46
2022/04/23 00:47:04;;;;;;;21.85;14.52;;;;;;;9.68;100.00;100470.16;4997342;28;20516;-42
2022/04/23 00:49:30;;;;;;;21.98;15.10;;;;;;;9.66;100.00;100466.00;4994109;28;20041;-43
2022/04/23 00:51:55;;;;;;;22.02;14.85;;;;;;;9.65;100.00;100469.66;5003402;28;20102;-45
2022/04/23 00:54:22;;;;;;;22.02;15.13;;;;;;;9.62;100.00;100468.19;5014440;28;20144;-44
2022/04/23 00:56:47;;;;;;;22.35;15.85;;;;;;;9.59;100.00;100457.84;4998544;28;20022;-41
2022/04/23 00:59:13;;;;;;;24.17;15.75;;;;;;;9.60;100.00;100456.00;4995590;28;20538;-44
2022/04/23 01:01:40;;;;;;;25.83;15.45;;;;;;;9.59;100.00;100467.66;5015868;28;20135;-43
2022/04/23 01:04:06;;;;;;;22.52;15.95;;;;;;;9.56;100.00;100463.50;5004960;28;20472;-43
2022/04/23 01:06:34;;;;;;;28.45;16.60;;;;;;;9.57;100.00;100467.81;5014145;28;20028;-43
2022/04/23 01:09:07;;;;;;;27.50;18.02;;;;;;;9.55;100.00;100469.81;5003681;28;20051;-43
2022/04/23 01:11:32;;;;;;;24.70;16.80;;;;;;;9.54;100.00;100476.16;4996033;28;20029;-46
2022/04/23 01:13:59;;;;;;;24.83;16.60;;;;;;;9.55;100.00;100475.13;4995939;28;20080;-42
2022/04/23 01:16:25;;;;;;;27.58;16.92;;;;;;;9.51;100.00;100469.31;4999883;28;20038;-43
2022/04/23 01:18:50;;;;;;;31.08;17.35;;;;;;;9.51;100.00;100471.16;5018494;28;20021;-44
2022/04/23 01:21:15;;;;;;;24.85;16.90;;;;;;;9.46;100.00;100463.63;5020812;28;20041;-44
2022/04/23 01:23:42;;;;;;;24.40;17.10;;;;;;;9.45;100.00;100463.78;5019626;28;20484;-44
2022/04/23 01:26:08;;;;;;;28.83;17.55;;;;;;;9.46;100.00;100463.63;5007656;28;20109;-45
2022/04/23 01:28:35;;;;;;;24.75;17.40;;;;;;;9.45;100.00;100472.66;5000752;28;20109;-43
2022/04/23 01:31:01;;;;;;;25.10;17.50;;;;;;;9.44;100.00;100472.81;5000579;28;20125;-43
2022/04/23 01:33:27;;;;;;;26.38;17.60;;;;;;;9.42;100.00;100467.63;5000829;28;20288;-43
2022/04/23 01:35:52;;;;;;;27.08;18.52;;;;;;;9.42;100.00;100466.78;5015086;28;20029;-43
2022/04/23 01:38:17;;;;;;;26.17;18.45;;;;;;;9.42;100.00;100469.44;5009600;28;20421;-45
2022/04/23 01:40:43;;;;;;;28.83;18.77;;;;;;;9.41;100.00;100470.47;5019820;28;20029;-46
2022/04/23 01:43:09;;;;;;;30.27;19.20;;;;;;;9.38;100.00;100468.13;5018556;28;20075;-44
2022/04/23 01:45:35;;;;;;;32.83;20.33;;;;;;;9.38;100.00;100478.78;5014287;28;20104;-46
2022/04/23 01:48:01;;;;;;;30.65;20.13;;;;;;;9.37;100.00;100471.75;4998988;28;20229;-45
2022/04/23 01:50:26;;;;;;;35.83;19.45;;;;;;;9.33;100.00;100471.25;5000453;28;20400;-45
2022/04/23 01:52:51;;;;;;;33.70;20.50;;;;;;;9.31;100.00;100475.91;5008062;28;20492;-45
2022/04/23 01:55:17;;;;;;;31.52;20.38;;;;;;;9.29;100.00;100465.41;5019535;28;20068;-43
2022/04/23 01:57:42;;;;;;;31.13;19.88;;;;;;;9.27;100.00;100475.41;5018808;28;20030;-44
2022/04/23 02:00:10;;;;;;;33.63;20.83;;;;;;;9.31;100.00;100470.59;5019496;28;20124;-42
2022/04/23 02:02:37;;;;;;;32.38;20.88;;;;;;;9.30;100.00;100471.56;5017420;28;20047;-44
2022/04/23 02:05:03;;;;;;;32.63;21.27;;;;;;;9.30;100.00;100475.09;5014256;28;20074;-45
2022/04/23 02:07:28;;;;;;;32.40;20.60;;;;;;;9.27;100.00;100470.09;5007703;28;20049;-42
2022/04/23 02:09:54;;;;;;;32.08;21.08;;;;;;;9.26;100.00;100468.41;5017940;28;20357;-42
2022/04/23 02:12:19;;;;;;;31.95;21.50;;;;;;;9.24;100.00;100467.72;5018379;28;20072;-42
2022/04/23 02:14:44;;;;;;;29.70;20.77;;;;;;;9.26;100.00;100475.56;5005652;28;20041;-44
2022/04/23 02:17:10;;;;;;;34.20;22.30;;;;;;;9.24;100.00;100477.56;5017709;28;20037;-46
2022/04/23 02:19:35;;;;;;;33.70;22.02;;;;;;;9.23;100.00;100474.09;5002279;28;20026;-44
2022/04/23 02:22:00;;;;;;;33.15;22.00;;;;;;;9.22;100.00;100469.72;4999002;28;20101;-44
2022/04/23 02:24:26;;;;;;;36.08;21.75;;;;;;;9.20;100.00;100471.72;5014522;28;20121;-44
2022/04/23 02:26:51;;;;;;;31.85;22.15;;;;;;;9.16;100.00;100470.38;5007331;28;20092;-46
2022/04/23 02:29:16;;;;;;;32.13;21.65;;;;;;;9.15;100.00;100474.88;4997058;28;20022;-42
2022/04/23 02:31:41;;;;;;;32.90;22.23;;;;;;;9.15;100.00;100474.88;5000097;28;20026;-43
2022/04/23 02:34:07;;;;;;;34.47;21.85;;;;;;;9.14;100.00;100472.38;4998242;28;20190;-43
2022/04/23 02:36:32;;;;;;;32.70;21.70;;;;;;;9.13;100.00;100476.00;5001368;28;20076;-43
2022/04/23 02:38:58;;;;;;;35.13;23.13;;;;;;;9.10;100.00;100471.03;5011313;28;20041;-44
2022/04/23 02:41:24;;;;;;;36.90;22.58;;;;;;;9.10;100.00;100471.03;5000306;28;20026;-44
2022/04/23 02:43:50;;;;;;;34.60;22.40;;;;;;;9.07;100.00;100477.50;5016714;28;20480;-43
2022/04/23 02:46:16;;;;;;;36.35;23.35;;;;;;;9.00;100.00;100467.66;5019063;28;20383;-43
2022/04/23 02:48:42;;;;;;;34.53;22.88;;;;;;;9.04;100.00;100477.00;5015743;28;20039;-44
2022/04/23 02:51:08;;;;;;;38.08;23.92;;;;;;;9.01;100.00;100475.47;5006055;28;20100;-44
2022/04/23 02:53:34;;;;;;;37.10;23.10;;;;;;;9.01;100.00;100471.97;5018908;28;20476;-43
2022/04/23 02:56:02;;;;;;;41.80;24.30;;;;;;;8.96;100.00;100475.97;5016714;28;20057;-42
2022/04/23 02:58:28;;;;;;;38.65;23.75;;;;;;;8.95;100.00;100474.28;4997774;28;20088;-43
2022/04/23 03:00:53;;;;;;;35.58;23.25;;;;;;;8.94;100.00;100475.28;5006079;28;20061;-43
2022/04/23 03:03:19;;;;;;;37.60;24.55;;;;;;;8.94;100.00;100472.63;5016908;28;20072;-43
2022/04/23 03:05:45;;;;;;;40.25;23.73;;;;;;;8.93;100.00;100454.97;5017562;28;20029;-43
2022/04/23 03:08:12;;;;;;;41.03;24.15;;;;;;;8.93;100.00;100462.97;5017489;28;20037;-43
2022/04/23 03:10:39;;;;;;;40.55;23.52;;;;;;;8.90;100.00;100460.63;5016145;28;20449;-43
2022/04/23 03:13:07;;;;;;;39.35;23.77;;;;;;;8.90;100.00;100460.63;5018275;28;20128;-42
2022/04/23 03:15:34;;;;;;;37.97;24.63;;;;;;;8.86;100.00;100463.75;5010900;28;20030;-43
2022/04/23 03:18:18;;;;;;;40.50;24.50;;;;;;;8.86;100.00;100461.94;4996659;28;20316;-43
2022/04/23 03:20:45;;;;;;;36.70;25.23;;;;;;;8.87;100.00;100460.94;5006332;28;20188;-43
2022/04/23 03:23:12;;;;;;;35.97;24.23;;;;;;;8.88;100.00;100461.78;5015582;28;20057;-43
2022/04/23 03:25:38;;;;;;;38.67;24.92;;;;;;;8.88;100.00;100454.63;4998114;28;20014;-42
2022/04/23 03:28:03;;;;;;;42.25;25.55;;;;;;;8.88;100.00;100461.78;5010030;28;20017;-46
2022/04/23 03:30:29;;;;;;;38.20;25.65;;;;;;;8.88;100.00;100453.78;5015781;28;20025;-44
2022/04/23 03:32:54;;;;;;;43.90;25.48;;;;;;;8.87;100.00;100450.28;5016829;28;20088;-42
2022/04/23 03:35:20;;;;;;;39.88;25.98;;;;;;;8.86;100.00;100451.28;4999425;28;20499;-42
2022/04/23 03:37:46;;;;;;;39.97;25.23;;;;;;;8.88;100.00;100445.81;4997124;28;20038;-42
2022/04/23 03:40:12;;;;;;;40.38;25.08;;;;;;;8.88;100.00;100454.63;4997749;28;20373;-42
2022/04/23 03:42:38;;;;;;;36.78;25.27;;;;;;;8.87;100.00;100446.78;4999453;28;20476;-44
2022/04/23 03:45:04;;;;;;;41.20;26.08;;;;;;;8.87;100.00;100447.63;5008797;28;20044;-44
2022/04/23 03:47:33;;;;;;;42.08;26.67;;;;;;;8.82;100.00;100438.44;5011305;28;20206;-46
2022/04/23 03:50:05;;;;;;;44.63;27.00;;;;;;;8.85;100.00;100441.63;4997605;28;20025;-43
2022/04/23 03:52:30;;;;;;;42.17;25.85;;;;;;;8.85;100.00;100443.47;5002490;28;20169;-45
2022/04/23 03:54:55;;;;;;;39.15;26.38;;;;;;;8.84;100.00;100442.63;5008404;28;20114;-43
2022/04/23 03:57:20;;;;;;;39.97;26.00;;;;;;;8.87;100.00;100444.94;5012899;28;20025;-45
2022/04/23 03:59:46;;;;;;;38.80;26.15;;;;;;;8.86;100.00;100445.09;5005516;28;20029;-43
2022/04/23 04:02:11;;;;;;;40.42;26.13;;;;;;;8.86;100.00;100435.31;4997377;28;20058;-42
2022/04/23 04:04:36;;;;;;;42.55;26.45;;;;;;;8.83;100.00;100427.63;4994484;28;20026;-42
2022/04/23 04:07:02;;;;;;;43.92;26.60;;;;;;;8.80;100.00;100435.94;4997638;28;20392;-42
2022/04/23 04:09:28;;;;;;;40.92;26.92;;;;;;;8.79;100.00;100434.25;4994898;28;20064;-43
2022/04/23 04:12:02;;;;;;;40.63;26.08;;;;;;;8.78;100.00;100436.09;4995868;28;20030;-43
2022/04/23 04:14:35;;;;;;;44.55;26.05;;;;;;;8.77;100.00;100436.25;4996488;28;20072;-43
2022/04/23 04:17:02;;;;;;;41.55;26.83;;;;;;;8.75;100.00;100435.59;5008203;28;20056;-44
2022/04/23 04:19:28;;;;;;;40.25;26.02;;;;;;;8.75;100.00;100431.09;4997028;28;20822;-42
2022/04/23 04:21:54;;;;;;;41.65;26.42;;;;;;;8.76;100.00;100438.09;4996079;28;20385;-43
2022/04/23 04:24:20;;;;;;;41.08;25.63;;;;;;;8.75;100.00;100449.72;5000065;28;20044;-43
2022/04/23 04:26:47;;;;;;;39.10;26.45;;;;;;;8.75;100.00;100436.41;5000557;28;20033;-42
2022/04/23 04:29:13;;;;;;;39.20;25.52;;;;;;;8.74;100.00;100432.09;4999296;28;20132;-42
2022/04/23 04:31:49;;;;;;;39.35;26.42;;;;;;;8.74;100.00;100434.75;4997484;28;20105;-44
2022/04/23 04:34:18;;;;;;;40.70;26.48;;;;;;;8.75;100.00;100430.25;4994363;28;20109;-45
2022/04/23 04:36:45;;;;;;;43.05;26.15;;;;;;;8.76;100.00;100423.94;4996209;28;20026;-46
2022/04/23 04:39:11;;;;;;;41.25;26.98;;;;;;;8.73;100.00;100417.09;4994232;28;20642;-44
2022/04/23 04:41:36;;;;;;;44.05;27.10;;;;;;;8.74;100.00;100421.44;4996567;28;20164;-44
2022/04/23 04:44:02;;;;;;;39.72;26.00;;;;;;;8.75;100.00;100432.91;4995795;28;20034;-46
2022/04/23 04:46:27;;;;;;;41.65;26.67;;;;;;;8.75;100.00;100425.75;4995580;28;20089;-43
2022/04/23 04:48:53;;;;;;;46.97;26.45;;;;;;;8.73;100.00;100419.75;4994278;28;20037;-42
2022/04/23 04:51:18;;;;;;;42.17;26.58;;;;;;;8.77;100.00;100428.25;4995906;28;20482;-44
2022/04/23 04:53:43;;;;;;;40.13;25.90;;;;;;;8.78;100.00;100428.09;5018359;28;20092;-43
2022/04/23 04:56:09;;;;;;;38.78;25.88;;;;;;;8.80;100.00;100432.44;5008417;28;20212;-43
2022/04/23 04:58:35;;;;;;;44.00;26.95;;;;;;;8.81;100.00;100431.44;5014538;28;20033;-44
2022/04/23 05:01:02;;;;;;;40.25;25.52;;;;;;;8.82;100.00;100433.94;4997761;28;20054;-43
2022/04/23 05:03:27;;;;;;;39.13;25.77;;;;;;;8.85;100.00;100438.13;4999570;28;20037;-46
2022/04/23 05:05:52;;;;;;;39.58;26.25;;;;;;;8.86;100.00;100440.63;5011884;28;20021;-43
2022/04/23 05:08:17;;;;;;;41.42;26.70;;;;;;;8.91;100.00;100445.47;5015403;28;20021;-43
2022/04/23 05:10:43;;;;;;;41.65;25.50;;;;;;;8.95;100.00;100444.16;5002889;28;20115;-46
2022/04/23 05:13:08;;;;;;;37.65;25.73;;;;;;;8.98;100.00;100445.66;4995157;28;20025;-43
2022/04/23 05:15:33;;;;;;;39.20;25.83;;;;;;;9.01;100.00;100451.50;5009909;28;20036;-43
2022/04/23 05:17:59;;;;;;;38.17;26.52;;;;;;;9.03;100.00;100436.22;5013604;28;20037;-43
2022/04/23 05:20:24;;;;;;;38.20;25.48;;;;;;;9.06;100.00;100449.22;5014064;28;20032;-42
2022/04/23 05:22:49;;;;;;;37.50;25.73;;;;;;;9.10;100.00;100442.56;5014241;28;20044;-45
2022/04/23 05:25:15;;;;;;;39.10;26.50;;;;;;;9.13;100.00;100444.91;5014314;28;20033;-44
2022/04/23 05:27:40;;;;;;;39.30;26.10;;;;;;;9.18;100.00;100441.72;5000183;28;20033;-44
2022/04/23 05:30:06;;;;;;;41.25;26.30;;;;;;;9.23;100.00;100443.91;5012218;28;20413;-42
2022/04/23 05:32:31;;;;;;;38.83;25.77;;;;;;;9.26;100.00;100447.09;5011133;28;20157;-43
2022/04/23 05:34:57;;;;;;;36.50;25.02;;;;;;;9.30;100.00;100445.78;5007079;28;20040;-43
2022/04/23 05:37:23;;;;;;;38.60;25.75;;;;;;;9.34;100.00;100451.63;5005960;28;20026;-42
2022/04/23 05:39:48;;;;;;;37.03;26.05;;;;;;;9.39;100.00;100457.28;4995854;28;20034;-44
2022/04/23 05:42:13;;;;;;;40.85;26.85;;;;;;;9.43;100.00;100455.13;4994770;28;20044;-43
2022/04/23 05:44:39;;;;;;;38.33;26.70;;;;;;;9.46;100.00;100450.31;5012658;28;20025;-46
2022/04/23 05:47:04;;;;;;;39.13;25.27;;;;;;;9.52;100.00;100459.47;5004463;28;20049;-45
2022/04/23 05:49:29;;;;;;;36.85;25.77;;;;;;;9.55;100.00;100447.66;5008299;28;20084;-43
2022/04/23 05:51:54;;;;;;;35.20;24.15;;;;;;;9.58;100.00;100447.34;4995934;28;20506;-43
2022/04/23 05:54:20;;;;;;;39.13;26.13;;;;;;;9.61;100.00;100447.84;5009915;28;20034;-42
2022/04/23 05:56:45;;;;;;;35.47;24.92;;;;;;;9.66;100.00;100447.34;4999445;28;20206;-44
2022/04/23 05:59:10;;;;;;;36.33;24.60;;;;;;;9.70;100.00;100444.16;5002935;28;20035;-42
2022/04/23 06:01:36;;;;;;;38.67;25.60;;;;;;;9.73;100.00;100442.19;5006558;28;20464;-44
2022/04/23 06:04:01;;;;;;;36.28;25.35;;;;;;;9.78;100.00;100447.88;4998183;28;20022;-45
2022/04/23 06:06:26;;;;;;;37.47;25.17;;;;;;;9.82;100.00;100450.00;5017909;28;20541;-42
2022/04/23 06:08:51;;;;;;;39.25;26.55;;;;;;;9.86;100.00;100442.50;5010437;28;20112;-43
2022/04/23 06:11:17;;;;;;;38.05;25.80;;;;;;;9.90;100.00;100438.53;5017983;28;20519;-44
2022/04/23 06:13:42;;;;;;;36.72;25.40;;;;;;;9.94;100.00;100436.34;5001564;28;20029;-41
2022/04/23 06:16:07;;;;;;;35.45;24.67;;;;;;;10.00;100.00;100443.69;4998501;28;20720;-45
2022/04/23 06:18:33;;;;;;;36.92;24.85;;;;;;;10.05;100.00;100436.03;4998540;28;20068;-42
2022/04/23 06:20:58;;;;;;;37.65;25.52;;;;;;;10.11;100.00;100442.50;5008707;28;20475;-42
2022/04/23 06:23:23;;;;;;;39.75;24.90;;;;;;;10.17;100.00;100445.34;5018012;28;20095;-42
2022/04/23 06:25:49;;;;;;;35.30;25.52;;;;;;;10.22;100.00;100444.84;5016436;28;20690;-43
2022/04/23 06:28:14;;;;;;;35.80;25.02;;;;;;;10.27;100.00;100431.84;5010578;28;20456;-44
2022/04/23 06:30:39;;;;;;;35.65;24.67;;;;;;;10.33;100.00;100436.50;5007308;28;20484;-43
2022/04/23 06:33:05;;;;;;;40.15;24.65;;;;;;;10.39;100.00;100448.34;5006155;28;20380;-44
2022/04/23 06:35:30;;;;;;;35.33;25.20;;;;;;;10.45;100.00;100448.50;5007291;28;20030;-44
2022/04/23 06:37:56;;;;;;;36.13;25.20;;;;;;;10.52;100.00;100446.00;5003796;28;20049;-44
2022/04/23 06:40:21;;;;;;;36.33;25.45;;;;;;;10.59;100.00;100443.44;4998063;28;20033;-44
2022/04/23 06:42:47;;;;;;;37.08;25.02;;;;;;;10.67;100.00;100438.09;4998714;28;20419;-44
2022/04/23 06:45:12;;;;;;;34.08;24.83;;;;;;;10.75;100.00;100442.59;5016662;28;20026;-43
2022/04/23 06:47:38;;;;;;;37.67;25.00;;;;;;;10.83;100.00;100437.22;5016964;28;20108;-44
2022/04/23 06:50:06;;;;;;;36.25;24.83;;;;;;;10.91;100.00;100439.00;5018505;28;20013;-43
2022/04/23 06:52:31;;;;;;;35.15;23.95;;;;;;;10.98;100.00;100442.66;5000669;28;20062;-43
2022/04/23 06:54:56;;;;;;;35.53;23.23;;;;;;;11.05;100.00;100446.31;5005764;28;20527;-43
2022/04/23 06:57:23;;;;;;;35.13;24.73;;;;;;;11.13;100.00;100448.09;5017489;28;20041;-43
2022/04/23 06:59:49;;;;;;;38.78;24.33;;;;;;;11.21;100.00;100440.03;5017795;28;20022;-43
2022/04/23 07:02:15;;;;;;;35.47;24.42;;;;;;;11.31;100.00;100439.84;5008039;28;20426;-44
2022/04/23 07:04:40;;;;;;;33.08;23.85;;;;;;;11.42;100.00;100433.25;5010776;28;20106;-44
2022/04/23 07:07:06;;;;;;;32.17;23.27;;;;;;;11.52;100.00;100434.69;5017432;28;20036;-43
2022/04/23 07:09:31;;;;;;;31.50;23.55;;;;;;;11.63;100.00;100430.75;5004453;28;20018;-42
2022/04/23 07:11:58;;;;;;;33.10;24.90;;;;;;;11.73;100.00;100428.69;4999423;28;20121;-45
2022/04/23 07:14:23;;;;;;;36.45;24.27;;;;;;;11.87;100.00;100435.09;5016354;28;20083;-41
2022/04/23 07:16:49;;;;;;;34.50;23.52;;;;;;;12.04;100.00;100432.31;5007439;28;20018;-43
2022/04/23 07:19:14;;;;;;;39.33;23.27;;;;;;;12.15;100.00;100426.50;4996783;28;20032;-43
2022/04/23 07:21:40;;;;;;;34.90;23.55;;;;;;;12.24;100.00;100430.78;4997290;28;20040;-42
2022/04/23 07:24:07;;;;;;;36.60;23.40;;;;;;;12.33;100.00;100423.50;4997966;28;20045;-43
2022/04/23 07:26:34;;;;;;;34.28;22.80;;;;;;;12.47;100.00;100428.06;4980389;28;20389;-43
2022/04/23 07:29:02;;;;;;;33.45;23.10;;;;;;;12.61;100.00;100420.19;4997321;28;20061;-43
2022/04/23 07:31:29;;;;;;;30.50;22.40;;;;;;;12.72;98.66;100424.25;4997794;28;20030;-43
2022/04/23 07:39:29;;;;;;;29.67;21.42;;;;;;;13.02;96.49;100411.66;4999685;28;20068;-42
2022/04/23 07:41:54;;;;;;;31.70;21.35;;;;;;;13.11;96.78;100415.88;5015620;28;20509;-45
2022/04/23 07:44:21;;;;;;;30.85;22.52;;;;;;;13.25;96.77;100409.66;5016477;28;20033;-43
2022/04/23 07:46:47;;;;;;;32.03;22.35;;;;;;;13.38;95.84;100409.00;5011738;28;20029;-43
2022/04/23 07:49:13;;;;;;;27.85;21.33;;;;;;;13.51;94.53;100408.31;4996077;28;20057;-44
2022/04/23 07:51:38;;;;;;;29.00;20.58;;;;;;;13.65;93.57;100413.81;4997803;28;20053;-47
2022/04/23 07:54:04;;;;;;;28.67;21.08;;;;;;;13.67;91.38;100404.53;4997514;28;20027;-44
2022/04/23 07:56:29;;;;;;;29.33;20.40;;;;;;;13.75;89.96;100406.25;4995828;28;20456;-44
2022/04/23 07:58:54;;;;;;;30.17;19.40;;;;;;;13.81;88.63;100405.47;5004854;28;20044;-43
2022/04/23 08:01:20;;;;;;;26.50;19.60;;;;;;;13.83;88.22;100405.28;5016546;28;20044;-45
2022/04/23 08:03:45;;;;;;;28.80;20.20;;;;;;;13.96;88.92;100405.41;5014496;28;20029;-43
2022/04/23 08:06:11;;;;;;;32.38;20.48;;;;;;;14.07;89.38;100404.03;5011231;28;20120;-43
2022/04/23 08:08:37;;;;;;;26.48;19.38;;;;;;;14.18;87.18;100408.88;5017043;28;20523;-47
2022/04/23 08:11:03;;;;;;;27.80;20.10;;;;;;;14.25;86.21;100401.69;4997408;28;20026;-44
2022/04/23 08:13:28;;;;;;;26.38;20.35;;;;;;;14.33;84.34;100392.66;4996419;28;20206;-44
2022/04/23 08:15:53;;;;;;;32.78;20.40;;;;;;;14.40;86.86;100392.69;5002101;28;20029;-44
2022/04/23 08:18:19;;;;;;;27.10;20.63;;;;;;;14.58;86.30;100395.72;5009063;28;20034;-42
2022/04/23 08:20:45;;;;;;;26.50;20.15;;;;;;;14.75;84.76;100401.63;5016926;28;20030;-42
2022/04/23 08:23:11;;;;;;;28.10;19.65;;;;;;;14.80;84.91;100385.72;5008491;28;20307;-43
2022/04/23 08:25:36;;;;;;;27.33;20.13;;;;;;;14.95;84.80;100384.72;4995870;28;20065;-42
2022/04/23 08:30:46;;;;;;;26.30;19.80;;;;;;;15.32;81.58;100387.94;4996399;28;20049;-45
2022/04/23 08:33:11;;;;;;;32.15;20.25;;;;;;;15.45;80.13;100385.28;4995348;28;20029;-43
2022/04/23 08:35:38;;;;;;;27.48;19.52;;;;;;;15.48;79.57;100377.63;5002715;28;20017;-43
2022/04/23 08:38:04;;;;;;;26.73;19.73;;;;;;;15.55;78.51;100384.88;5006034;28;20072;-44
2022/04/23 08:40:41;;;;;;;25.60;19.90;;;;;;;15.63;77.22;100381.97;5011162;28;20021;-43
2022/04/23 08:43:07;;;;;;;28.85;19.55;;;;;;;15.65;77.34;100380.75;5000377;28;20064;-44
2022/04/23 08:45:36;;;;;;;28.67;19.58;;;;;;;15.51;75.99;100379.06;4997590;28;20033;-43
2022/04/23 08:48:05;;;;;;;27.63;20.08;;;;;;;15.38;76.52;100384.44;5001881;28;20029;-46
2022/04/23 08:50:31;;;;;;;26.90;19.77;;;;;;;15.33;77.40;100384.22;4999784;28;20030;-43
2022/04/23 08:52:59;;;;;;;25.52;20.27;;;;;;;15.28;78.23;100387.53;5016030;28;20051;-42
2022/04/23 08:55:26;;;;;;;27.17;19.35;;;;;;;15.20;77.15;100388.53;5005632;28;20053;-45
2022/04/23 08:57:52;;;;;;;29.77;20.08;;;;;;;15.19;78.31;100392.25;4996289;28;20037;-44
2022/04/23 09:00:18;;;;;;;25.65;20.40;;;;;;;15.18;77.88;100384.41;4996294;28;20032;-44
2022/04/23 09:02:44;;;;;;;25.50;20.27;;;;;;;15.30;77.60;100394.34;4995319;28;20045;-46
2022/04/23 09:05:13;;;;;;;27.20;19.88;;;;;;;15.33;77.42;100384.22;4995477;28;20345;-44
2022/04/23 09:07:39;;;;;;;29.17;19.90;;;;;;;15.60;76.41;100388.63;4996674;28;20037;-43
2022/04/23 09:10:06;;;;;;;26.17;19.50;;;;;;;15.87;75.67;100394.06;5015608;28;20033;-43
2022/04/23 09:12:31;;;;;;;29.52;20.10;;;;;;;15.98;74.93;100385.31;5015640;28;20025;-46
2022/04/23 09:23:43;;;;;;;31.00;20.50;;;;;;;16.77;72.55;100397.00;4997980;28;20040;-43
2022/04/23 09:26:19;;;;;;;25.52;20.08;;;;;;;16.86;70.82;100399.50;5014601;28;20270;-43
2022/04/23 09:28:49;;;;;;;26.20;20.10;;;;;;;16.88;70.50;100395.53;5015031;28;20539;-42
2022/04/23 09:31:15;;;;;;;27.73;21.08;;;;;;;16.89;69.99;100390.97;5002347;28;20076;-42
2022/04/23 09:33:46;;;;;;;27.38;20.42;;;;;;;16.88;70.94;100403.63;4994757;28;20424;-45
2022/04/23 09:36:12;;;;;;;27.10;20.48;;;;;;;16.86;70.09;100402.19;4997180;28;20033;-44
2022/04/23 09:38:37;;;;;;;28.08;21.30;;;;;;;16.81;71.36;100397.41;5003413;28;20187;-45
2022/04/23 09:41:21;;;;;;;30.52;21.92;;;;;;;16.75;70.12;100407.16;4998968;28;20096;-43
2022/04/23 09:43:51;;;;;;;28.50;22.42;;;;;;;16.72;70.26;100396.81;5000525;28;20383;-42
2022/04/23 09:46:16;;;;;;;29.58;21.35;;;;;;;17.24;71.88;100393.28;5005103;28;20029;-43
2022/04/23 09:48:43;;;;;;;28.70;21.58;;;;;;;17.63;69.03;100391.38;5018397;28;20552;-43
2022/04/23 09:51:24;;;;;;;25.83;21.27;;;;;;;17.83;67.83;100397.44;5009697;28;20102;-44
2022/04/23 09:53:50;;;;;;;29.50;22.17;;;;;;;17.96;64.77;100399.25;5019196;28;20040;-44
2022/04/23 09:56:17;;;;;;;29.77;21.77;;;;;;;18.12;64.73;100392.44;5018912;28;20540;-45
2022/04/23 09:58:43;;;;;;;36.92;21.88;;;;;;;18.07;65.83;100398.53;5007636;28;20045;-46
2022/04/23 10:01:08;;;;;;;28.92;22.00;;;;;;;18.19;64.79;100393.22;5002136;28;20076;-46
2022/04/23 10:03:34;;;;;;;34.35;21.55;;;;;;;18.22;64.58;100392.78;5000148;28;20017;-43
2022/04/23 10:06:02;;;;;;;27.83;21.98;;;;;;;18.45;63.95;100383.19;5011539;28;20306;-47
2022/04/23 10:08:33;;;;;;;28.58;21.58;;;;;;;18.62;63.79;100386.13;4999903;28;20448;-46
2022/04/23 10:11:10;;;;;;;26.90;20.67;;;;;;;18.72;61.34;100389.13;5007066;28;20065;-45
2022/04/23 10:13:39;;;;;;;33.00;21.17;;;;;;;18.96;62.89;100386.59;5018553;28;20040;-46
2022/04/23 10:16:05;;;;;;;29.60;22.17;;;;;;;19.08;61.60;100381.22;5000071;28;20037;-43
2022/04/23 10:18:32;;;;;;;26.58;20.88;;;;;;;19.14;61.24;100378.41;4998567;28;20440;-48
2022/04/23 10:21:08;;;;;;;26.77;21.27;;;;;;;19.07;58.85;100377.69;5012298;28;20018;-43
2022/04/23 10:24:00;;;;;;;25.17;20.60;;;;;;;19.27;62.10;100380.13;5000460;28;20070;-43
2022/04/23 10:26:37;;;;;;;26.40;20.98;;;;;;;19.32;59.66;100374.03;5006698;28;20087;-47
2022/04/23 10:29:15;;;;;;;25.85;21.02;;;;;;;19.39;60.29;100367.44;4999348;28;20037;-45
2022/04/23 10:31:41;;;;;;;26.02;20.90;;;;;;;19.43;58.33;100364.28;5012748;28;20056;-47
2022/04/23 10:34:32;;;;;;;27.67;19.92;;;;;;;19.38;58.63;100364.94;5018320;28;20057;-46
2022/04/23 10:37:14;;;;;;;25.88;20.33;;;;;;;19.62;58.43;100371.28;5017225;28;20879;-43
2022/04/23 10:39:40;;;;;;;28.35;20.50;;;;;;;19.46;54.97;100356.50;5012877;28;20053;-46
2022/04/23 10:42:05;;;;;;;30.27;20.23;;;;;;;19.67;56.53;100359.72;5017351;28;20033;-48
2022/04/23 10:44:31;;;;;;;26.40;21.02;;;;;;;19.70;56.98;100364.69;5017920;28;20108;-43
2022/04/23 10:46:58;;;;;;;28.25;20.58;;;;;;;19.71;56.13;100367.16;5018042;28;20057;-44
2022/04/23 10:49:25;;;;;;;25.05;20.77;;;;;;;19.45;55.86;100362.16;5016287;28;20094;-46
2022/04/23 10:51:58;;;;;;;28.50;21.27;;;;;;;19.44;56.92;100355.09;5009778;28;20030;-44
2022/04/23 10:54:45;;;;;;;27.65;21.65;;;;;;;19.38;57.20;100360.38;5004655;28;20017;-44
2022/04/23 10:57:12;;;;;;;29.75;22.10;;;;;;;19.49;56.85;100368.78;5007686;28;20295;-45
2022/04/23 10:59:44;;;;;;;29.60;22.45;;;;;;;19.64;56.63;100357.50;4998857;28;20029;-44
2022/04/23 11:02:30;;;;;;;31.90;22.10;;;;;;;19.87;56.77;100351.28;5005496;28;20022;-45
2022/04/23 11:13:23;;;;;;;26.90;21.30;;;;;;;20.42;53.75;100358.25;5017399;28;20459;-45
2022/04/23 11:16:08;;;;;;;29.65;22.05;;;;;;;20.57;55.31;100350.41;5000676;28;20033;-44
2022/04/23 11:18:35;;;;;;;27.83;21.60;;;;;;;20.71;53.61;100347.47;5006637;28;20060;-46
2022/04/23 11:21:12;;;;;;;32.65;21.63;;;;;;;21.02;55.11;100346.16;5017781;28;20036;-42
2022/04/23 11:23:42;;;;;;;28.95;21.98;;;;;;;21.05;52.14;100346.50;5017961;28;20076;-44
2022/04/23 11:26:11;;;;;;;30.30;22.30;;;;;;;20.92;52.02;100344.06;5009488;28;20491;-43
2022/04/23 11:28:37;;;;;;;27.50;22.48;;;;;;;21.05;52.31;100340.25;5001287;28;20036;-43
2022/04/23 11:31:16;;;;;;;32.10;21.42;;;;;;;21.16;52.02;100338.53;5014501;28;20025;-44
2022/04/23 11:34:01;;;;;;;26.85;21.25;;;;;;;21.48;51.81;100341.56;4996343;28;20399;-44